Time;durP1;ratioP1;P1;durP2;ratioP2;P2;SDS_P1;SDS_P2;PMS_P1;PMS_P2;Temp;Humidity;BMP_temperature;BMP_pressure;BME280_temperature;BME280_humidity;BME280_pressure;Samples;Min_cycle;Max_cycle;Signal;HPM_P1;HPM_P2
2024/01/12 00:01:54;;;;;;;7.67;7.17;;;;;;;-0.12;100.00;146037.94;5078194;28;20598;-56
2024/01/12 00:04:23;;;;;;;8.90;8.20;;;;;;;-0.03;100.00;146060.50;5077823;28;20244;-58
2024/01/12 00:06:51;;;;;;;8.13;7.60;;;;;;;-0.28;100.00;145997.88;5077809;28;20189;-56
2024/01/12 00:09:18;;;;;;;8.40;7.83;;;;;;;-0.10;100.00;146042.97;5078074;28;20716;-56
2024/01/12 00:11:45;;;;;;;8.93;8.23;;;;;;;-0.10;100.00;146041.72;5078067;28;20540;-59
2024/01/12 00:14:14;;;;;;;8.13;7.43;;;;;;;-0.18;100.00;146021.69;5077935;28;20227;-56
2024/01/12 00:16:44;;;;;;;8.17;7.67;;;;;;;-0.11;100.00;146040.47;5077726;28;20631;-56
2024/01/12 00:19:11;;;;;;;7.90;7.27;;;;;;;-0.05;100.00;146055.53;5077659;28;20621;-57
2024/01/12 00:21:40;;;;;;;7.57;7.10;;;;;;;-0.05;100.00;146054.25;5078032;28;20189;-57
2024/01/12 00:24:07;;;;;;;7.93;7.33;;;;;;;0.04;100.00;146076.81;5077635;28;20212;-56
2024/01/12 00:26:34;;;;;;;7.63;7.10;;;;;;;-0.09;100.00;146044.25;5077919;28;20260;-57
2024/01/12 00:29:01;;;;;;;7.70;7.00;;;;;;;-0.18;100.00;146021.69;5074056;28;20185;-57
2024/01/12 00:31:28;;;;;;;7.40;6.93;;;;;;;-0.11;100.00;146040.47;5074413;28;20235;-56
2024/01/12 00:33:55;;;;;;;8.13;7.40;;;;;;;-0.15;100.00;146029.19;5074463;28;20184;-57
2024/01/12 00:36:23;;;;;;;8.73;7.93;;;;;;;-0.10;100.00;146041.72;5074258;28;20188;-57
2024/01/12 00:38:51;;;;;;;8.20;7.63;;;;;;;-0.08;100.00;146047.97;5074247;28;20236;-57
2024/01/12 00:41:18;;;;;;;7.93;7.23;;;;;;;0.10;100.00;146090.56;5074298;28;20250;-56
2024/01/12 00:43:45;;;;;;;8.83;7.67;;;;;;;0.17;100.00;146109.34;5074102;28;20185;-57
2024/01/12 00:46:12;;;;;;;7.83;7.23;;;;;;;0.16;100.00;146105.63;5074269;28;20666;-57
2024/01/12 00:48:39;;;;;;;8.27;7.63;;;;;;;0.10;100.00;146091.81;5074138;28;20189;-57
2024/01/12 00:51:07;;;;;;;8.10;7.50;;;;;;;0.07;100.00;146083.06;5074051;28;20193;-57
2024/01/12 00:53:34;;;;;;;7.43;6.93;;;;;;;0.09;100.00;146089.31;5074269;28;20250;-56
2024/01/12 00:56:03;;;;;;;8.07;7.47;;;;;;;0.18;100.00;146111.84;5073918;28;20236;-56
2024/01/12 00:58:30;;;;;;;7.57;7.07;;;;;;;0.15;100.00;146104.34;5074197;28;20639;-57
2024/01/12 01:00:57;;;;;;;8.37;7.77;;;;;;;0.20;100.00;146116.88;5074128;28;20671;-57
2024/01/12 01:03:24;;;;;;;8.07;7.47;;;;;;;0.18;100.00;146110.59;5073876;28;20198;-58
2024/01/12 01:05:51;;;;;;;7.13;6.63;;;;;;;0.24;100.00;146126.91;5073710;28;20254;-56
2024/01/12 01:08:18;;;;;;;7.47;6.93;;;;;;;0.20;100.00;146116.88;5074023;28;20704;-58
2024/01/12 01:10:46;;;;;;;7.93;7.40;;;;;;;0.29;100.00;146138.19;5073763;28;20184;-58
2024/01/12 01:13:15;;;;;;;8.67;7.33;;;;;;;-0.10;100.00;146041.72;5073729;28;20181;-57
2024/01/12 01:15:42;;;;;;;9.03;8.13;;;;;;;0.14;100.00;146101.84;5073918;28;20670;-57
2024/01/12 01:18:10;;;;;;;8.40;7.80;;;;;;;-0.10;100.00;146041.72;5073567;28;20220;-58
2024/01/12 01:20:37;;;;;;;9.00;8.30;;;;;;;-0.04;100.00;146057.97;5073756;28;20197;-56
2024/01/12 01:23:05;;;;;;;8.10;7.50;;;;;;;-0.17;100.00;146024.19;5073748;28;20299;-57
2024/01/12 01:25:32;;;;;;;8.27;7.67;;;;;;;0.10;100.00;146090.56;5073416;28;20220;-58
2024/01/12 01:28:00;;;;;;;8.37;7.60;;;;;;;0.00;100.00;146068.00;5073549;28;20214;-58
2024/01/12 01:30:29;;;;;;;9.00;8.40;;;;;;;0.09;100.00;146089.31;5073372;28;20199;-56
2024/01/12 01:32:56;;;;;;;8.27;7.57;;;;;;;0.03;100.00;146074.28;5073516;28;20224;-56
2024/01/12 01:35:23;;;;;;;8.63;8.00;;;;;;;0.11;100.00;146094.34;5073578;28;20181;-58
2024/01/12 01:37:50;;;;;;;9.10;8.37;;;;;;;0.26;100.00;146130.63;5073309;28;20189;-58
2024/01/12 01:40:17;;;;;;;9.40;8.70;;;;;;;0.24;100.00;146126.91;5072780;28;20192;-58
2024/01/12 01:42:47;;;;;;;8.13;7.63;;;;;;;0.19;100.00;146114.38;5073390;28;20185;-57
2024/01/12 01:45:15;;;;;;;9.73;8.90;;;;;;;0.27;100.00;146133.16;5072846;28;20211;-56
2024/01/12 01:47:44;;;;;;;9.83;8.90;;;;;;;0.34;100.00;146151.94;5073113;28;20201;-58
2024/01/12 01:50:13;;;;;;;10.50;9.50;;;;;;;0.36;100.00;146155.72;5072964;28;20200;-56
2024/01/12 01:52:41;;;;;;;9.57;8.77;;;;;;;0.42;100.00;146172.00;5072809;28;20184;-58
2024/01/12 01:55:10;;;;;;;10.53;9.43;;;;;;;0.23;100.00;146124.41;5072624;28;20233;-57
2024/01/12 01:57:39;;;;;;;8.83;7.97;;;;;;;-0.13;100.00;146035.44;5073186;28;20192;-56
2024/01/12 02:00:08;;;;;;;7.97;7.40;;;;;;;0.09;100.00;146089.31;5072638;28;20196;-58
2024/01/12 02:02:35;;;;;;;8.53;7.90;;;;;;;0.12;100.00;146096.84;5072744;28;20598;-58
2024/01/12 02:05:06;;;;;;;12.53;8.20;;;;;;;0.24;100.00;146126.91;5072898;28;20697;-58
2024/01/12 02:07:34;;;;;;;7.23;6.73;;;;;;;0.24;100.00;146126.91;5072514;28;20235;-57
2024/01/12 02:10:01;;;;;;;7.43;6.93;;;;;;;0.25;100.00;146129.44;5072509;28;20189;-57
2024/01/12 02:12:28;;;;;;;7.57;7.17;;;;;;;0.19;100.00;146114.38;5072814;28;20185;-57
2024/01/12 02:14:56;;;;;;;7.93;7.23;;;;;;;0.20;100.00;146115.63;5072403;28;20181;-57
2024/01/12 02:17:23;;;;;;;7.70;7.10;;;;;;;0.25;100.00;146129.44;5072627;28;20540;-58
2024/01/12 02:19:50;;;;;;;8.10;7.60;;;;;;;0.37;100.00;146158.25;5072623;28;20185;-58
2024/01/12 02:22:21;;;;;;;8.23;7.53;;;;;;;0.42;100.00;146172.00;5072187;28;20280;-57
2024/01/12 02:24:48;;;;;;;7.50;7.10;;;;;;;0.42;100.00;146172.00;5072115;28;20215;-58
2024/01/12 02:27:15;;;;;;;8.17;7.37;;;;;;;0.47;100.00;146184.53;5072669;28;20230;-58
2024/01/12 02:29:42;;;;;;;8.77;7.97;;;;;;;0.51;100.00;146192.09;5072483;28;20185;-56
2024/01/12 02:32:09;;;;;;;8.57;7.50;;;;;;;0.39;100.00;146164.47;5072024;28;20192;-57
2024/01/12 02:34:36;;;;;;;11.50;7.57;;;;;;;0.43;100.00;146174.50;5072364;28;20184;-57
2024/01/12 02:37:04;;;;;;;8.90;8.00;;;;;;;0.31;100.00;146144.44;5072361;28;20654;-57
2024/01/12 02:39:32;;;;;;;7.27;6.77;;;;;;;0.38;100.00;146160.75;5072370;28;20189;-57
2024/01/12 02:41:59;;;;;;;7.93;7.40;;;;;;;0.39;100.00;146164.47;5072349;28;20188;-59
2024/01/12 02:44:26;;;;;;;7.73;7.23;;;;;;;0.35;100.00;146154.47;5072304;28;20559;-57
2024/01/12 02:46:53;;;;;;;8.47;7.97;;;;;;;0.17;100.00;146109.34;5071887;28;20208;-58
2024/01/12 02:49:20;;;;;;;8.07;7.50;;;;;;;0.29;100.00;146139.44;5072142;28;20628;-57
2024/01/12 02:51:47;;;;;;;9.50;7.87;;;;;;;0.40;100.00;146165.75;5071643;28;20609;-57
2024/01/12 02:54:14;;;;;;;8.43;7.50;;;;;;;0.53;100.00;146198.31;5071642;28;20228;-58
2024/01/12 02:56:43;;;;;;;7.97;7.43;;;;;;;0.38;100.00;146160.75;5071813;28;20185;-57
2024/01/12 02:59:10;;;;;;;8.27;7.57;;;;;;;0.59;100.00;146212.13;5072036;28;20617;-58
2024/01/12 03:01:37;;;;;;;8.63;7.70;;;;;;;0.63;100.00;146222.16;5072083;28;20585;-58
2024/01/12 03:04:04;;;;;;;9.07;8.27;;;;;;;0.62;100.00;146219.63;5071735;28;20185;-59
2024/01/12 03:06:31;;;;;;;8.10;7.50;;;;;;;0.56;100.00;146204.56;5071634;28;20266;-57
2024/01/12 03:08:58;;;;;;;8.10;7.50;;;;;;;0.56;100.00;146205.84;5071978;28;20188;-56
2024/01/12 03:11:25;;;;;;;9.07;8.27;;;;;;;0.61;100.00;146217.13;5071744;28;20294;-56
2024/01/12 03:13:54;;;;;;;8.50;7.73;;;;;;;0.42;100.00;146172.00;5071572;28;20185;-58
2024/01/12 03:16:21;;;;;;;8.27;7.67;;;;;;;0.40;100.00;146167.00;5071655;28;20185;-58
2024/01/12 03:18:49;;;;;;;8.70;8.00;;;;;;;0.50;100.00;146189.56;5071774;28;20185;-57
2024/01/12 03:21:17;;;;;;;9.27;8.47;;;;;;;0.47;100.00;146184.53;5071578;28;20628;-57
2024/01/12 03:23:44;;;;;;;8.13;7.63;;;;;;;0.52;100.00;146194.56;5071930;28;20189;-58
2024/01/12 03:26:11;;;;;;;8.50;7.80;;;;;;;0.55;100.00;146203.38;5071690;28;20220;-57
2024/01/12 03:28:38;;;;;;;8.37;7.70;;;;;;;0.49;100.00;146187.06;5071886;28;20242;-58
2024/01/12 03:31:07;;;;;;;7.40;6.90;;;;;;;0.29;100.00;146138.19;5071512;28;20200;-59
2024/01/12 03:33:34;;;;;;;8.60;7.93;;;;;;;0.46;100.00;146180.81;5071583;28;20181;-57
2024/01/12 03:36:01;;;;;;;8.53;7.93;;;;;;;0.27;100.00;146134.41;5071720;28;20619;-56
2024/01/12 03:38:28;;;;;;;10.40;8.27;;;;;;;0.43;100.00;146174.50;5071404;28;20188;-56
2024/01/12 03:40:55;;;;;;;10.17;9.17;;;;;;;0.47;100.00;146184.53;5071324;28;20192;-56
2024/01/12 03:43:22;;;;;;;10.53;9.13;;;;;;;0.55;100.00;146202.09;5071310;28;20192;-57
2024/01/12 03:45:49;;;;;;;9.67;8.80;;;;;;;0.56;100.00;146204.56;5071230;28;20270;-56
2024/01/12 03:48:18;;;;;;;9.57;8.77;;;;;;;0.54;100.00;146199.59;5071247;28;20185;-58
2024/01/12 03:50:45;;;;;;;10.07;8.90;;;;;;;0.65;100.00;146227.13;5071279;28;20639;-58
2024/01/12 03:53:12;;;;;;;11.43;9.67;;;;;;;0.74;100.00;146249.72;5071322;28;20193;-58
2024/01/12 03:55:39;;;;;;;13.73;9.53;;;;;;;0.81;100.00;146267.25;5071179;28;20221;-58
2024/01/12 03:58:06;;;;;;;9.90;8.93;;;;;;;0.80;100.00;146266.03;5071328;28;20226;-57
2024/01/12 04:00:33;;;;;;;9.83;8.97;;;;;;;0.84;100.00;146274.81;5071467;28;20185;-58
2024/01/12 04:03:00;;;;;;;11.03;9.00;;;;;;;0.91;100.00;146292.34;5072905;28;20188;-58
2024/01/12 04:05:29;;;;;;;10.03;9.07;;;;;;;0.81;100.00;146267.25;5075074;28;20200;-60
2024/01/12 04:07:56;;;;;;;14.57;9.50;;;;;;;0.89;100.00;146287.34;5075488;28;20185;-58
2024/01/12 04:10:23;;;;;;;11.53;9.40;;;;;;;0.97;100.00;146306.13;5074898;28;20185;-58
2024/01/12 04:12:50;;;;;;;9.07;8.17;;;;;;;0.85;100.00;146277.28;5074734;28;20185;-58
2024/01/12 04:15:17;;;;;;;10.90;9.73;;;;;;;0.90;100.00;146289.81;5075004;28;20250;-59
2024/01/12 04:17:44;;;;;;;10.07;9.13;;;;;;;0.87;100.00;146282.31;5074665;28;20189;-58
2024/01/12 04:20:12;;;;;;;11.30;9.17;;;;;;;0.73;100.00;146247.19;5074926;28;20540;-59
2024/01/12 04:22:41;;;;;;;9.87;9.03;;;;;;;0.68;100.00;146235.91;5074579;28;20283;-57
2024/01/12 04:25:09;;;;;;;10.37;9.50;;;;;;;0.73;100.00;146247.19;5074516;28;20647;-56
2024/01/12 04:27:36;;;;;;;11.13;10.03;;;;;;;0.66;100.00;146229.66;5074497;28;20189;-58
2024/01/12 04:30:03;;;;;;;15.33;10.27;;;;;;;0.54;100.00;146200.84;5074416;28;20655;-56
2024/01/12 04:32:30;;;;;;;11.63;9.30;;;;;;;0.45;100.00;146178.28;5074711;28;20180;-57
2024/01/12 04:34:57;;;;;;;12.23;10.33;;;;;;;0.50;100.00;146190.81;5074360;28;20188;-58
2024/01/12 04:37:25;;;;;;;11.47;10.20;;;;;;;0.45;100.00;146178.28;5074326;28;20238;-57
2024/01/12 04:39:53;;;;;;;9.83;9.03;;;;;;;0.27;100.00;146134.41;5074567;28;20223;-56
2024/01/12 04:42:20;;;;;;;10.83;9.83;;;;;;;0.24;100.00;146126.91;5074230;28;20193;-57
2024/01/12 04:44:47;;;;;;;12.23;9.13;;;;;;;0.45;100.00;146178.28;5074465;28;20234;-56
2024/01/12 04:47:14;;;;;;;11.83;10.03;;;;;;;0.61;100.00;146217.13;5074011;28;20594;-57
2024/01/12 04:49:42;;;;;;;10.80;9.80;;;;;;;0.41;100.00;146168.25;5074384;28;20594;-57
2024/01/12 04:52:09;;;;;;;11.73;10.00;;;;;;;0.57;100.00;146207.09;5073909;28;20241;-58
2024/01/12 04:54:36;;;;;;;11.00;10.03;;;;;;;0.62;100.00;146219.63;5074165;28;20648;-56
2024/01/12 04:57:05;;;;;;;11.30;10.20;;;;;;;0.53;100.00;146197.06;5074209;28;20181;-58
2024/01/12 04:59:32;;;;;;;12.03;10.00;;;;;;;0.63;100.00;146222.16;5073821;28;20243;-57
2024/01/12 05:01:59;;;;;;;12.23;10.30;;;;;;;0.47;100.00;146184.53;5073864;28;20189;-56
2024/01/12 05:04:26;;;;;;;15.03;10.57;;;;;;;0.66;100.00;146229.66;5073798;28;20242;-57
2024/01/12 05:06:53;;;;;;;11.57;10.33;;;;;;;0.58;100.00;146209.63;5073946;28;20208;-57
2024/01/12 05:09:20;;;;;;;11.93;10.63;;;;;;;0.62;100.00;146220.91;5073967;28;20250;-56
2024/01/12 05:11:47;;;;;;;11.23;10.23;;;;;;;0.66;100.00;146229.66;5073540;28;20238;-57
2024/01/12 05:14:16;;;;;;;13.30;11.53;;;;;;;0.64;100.00;146224.63;5073130;28;20657;-57
2024/01/12 05:16:43;;;;;;;14.87;11.37;;;;;;;0.50;100.00;146189.56;5073446;28;20246;-59
2024/01/12 05:19:10;;;;;;;15.43;11.50;;;;;;;0.68;100.00;146234.69;5073791;28;20207;-56
2024/01/12 05:21:37;;;;;;;11.90;10.70;;;;;;;0.70;100.00;146239.69;5073390;28;20185;-58
2024/01/12 05:24:05;;;;;;;30.13;11.97;;;;;;;0.73;100.00;146247.19;5073331;28;20189;-56
2024/01/12 05:26:32;;;;;;;16.87;12.20;;;;;;;0.70;100.00;146240.94;5073510;28;20220;-56
2024/01/12 05:28:59;;;;;;;14.30;11.83;;;;;;;0.87;100.00;146282.31;5073573;28;20250;-57
2024/01/12 05:31:28;;;;;;;32.00;12.37;;;;;;;0.87;100.00;146282.31;5073551;28;20258;-58
2024/01/12 05:33:55;;;;;;;33.50;12.20;;;;;;;0.99;100.00;146312.38;5073624;28;20661;-58
2024/01/12 05:36:22;;;;;;;31.70;12.90;;;;;;;0.89;100.00;146288.56;5073046;28;20180;-58
2024/01/12 05:38:49;;;;;;;26.13;13.63;;;;;;;0.93;100.00;146297.38;5073427;28;20265;-57
2024/01/12 05:41:16;;;;;;;20.43;12.30;;;;;;;0.85;100.00;146277.28;5073045;28;20256;-57
2024/01/12 05:43:44;;;;;;;25.63;13.30;;;;;;;0.82;100.00;146269.75;5072849;28;20181;-58
2024/01/12 05:46:11;;;;;;;22.00;13.60;;;;;;;0.73;100.00;146247.19;5072732;28;20209;-57
2024/01/12 05:48:39;;;;;;;20.27;12.67;;;;;;;0.69;100.00;146237.16;5072809;28;20243;-56
2024/01/12 05:51:06;;;;;;;17.37;13.40;;;;;;;0.69;100.00;146237.16;5073056;28;20594;-58
2024/01/12 05:53:33;;;;;;;17.03;13.03;;;;;;;0.71;100.00;146242.22;5072869;28;20185;-57
2024/01/12 05:56:00;;;;;;;17.30;13.33;;;;;;;0.47;100.00;146182.06;5072352;28;20282;-57
2024/01/12 05:58:28;;;;;;;27.77;15.07;;;;;;;0.38;100.00;146161.97;5072823;28;20242;-56
2024/01/12 06:00:55;;;;;;;23.07;15.03;;;;;;;0.40;100.00;146167.00;5072864;28;20259;-56
2024/01/12 06:03:22;;;;;;;20.17;15.03;;;;;;;0.40;100.00;146165.75;5072815;28;20189;-58
2024/01/12 06:05:51;;;;;;;22.03;15.20;;;;;;;0.45;100.00;146179.53;5072851;28;20181;-57
2024/01/12 06:08:19;;;;;;;26.53;16.03;;;;;;;0.39;100.00;146163.22;5072335;28;20188;-57
2024/01/12 06:10:46;;;;;;;23.80;16.20;;;;;;;0.22;100.00;146121.88;5072644;28;20180;-57
2024/01/12 06:13:13;;;;;;;24.07;15.03;;;;;;;0.36;100.00;146156.97;5072148;28;20185;-57
2024/01/12 06:15:41;;;;;;;20.27;15.30;;;;;;;0.31;100.00;146143.19;5072225;28;20219;-57
2024/01/12 06:18:08;;;;;;;20.80;14.87;;;;;;;0.32;100.00;146145.69;5072164;28;20188;-57
2024/01/12 06:20:35;;;;;;;22.93;15.23;;;;;;;0.35;100.00;146154.47;5072491;28;20258;-58
2024/01/12 06:23:03;;;;;;;18.20;14.43;;;;;;;0.30;100.00;146140.66;5071985;28;20185;-58
2024/01/12 06:25:36;;;;;;;26.17;15.13;;;;;;;0.36;100.00;146156.97;5071655;28;20197;-58
2024/01/12 06:28:03;;;;;;;23.07;16.17;;;;;;;0.49;100.00;146187.06;5071858;28;20646;-58
2024/01/12 06:30:31;;;;;;;21.07;14.77;;;;;;;0.43;100.00;146173.25;5072073;28;20185;-58
2024/01/12 06:32:58;;;;;;;17.43;14.03;;;;;;;0.43;100.00;146174.50;5071922;28;20185;-59
2024/01/12 06:35:25;;;;;;;19.47;14.63;;;;;;;0.52;100.00;146194.56;5072180;28;20188;-57
2024/01/12 06:37:52;;;;;;;18.40;16.42;;;;;;;0.59;100.00;146212.13;5071232;28;20486;-55
2024/01/12 06:40:21;;;;;;;16.50;14.23;;;;;;;0.70;100.00;146239.69;5071793;28;20220;-55
2024/01/12 06:42:48;;;;;;;19.70;15.83;;;;;;;0.58;100.00;146209.63;5072077;28;20236;-54
2024/01/12 06:45:15;;;;;;;21.50;16.17;;;;;;;0.67;100.00;146233.44;5071948;28;20668;-55
2024/01/12 06:47:42;;;;;;;22.17;15.27;;;;;;;0.58;100.00;146209.63;5071824;28;20201;-55
2024/01/12 06:50:10;;;;;;;20.23;14.97;;;;;;;0.52;100.00;146194.56;5071647;28;20184;-55
2024/01/12 06:52:37;;;;;;;21.57;15.10;;;;;;;0.50;100.00;146189.56;5071557;28;20185;-56
2024/01/12 06:55:05;;;;;;;21.70;15.53;;;;;;;0.68;100.00;146234.69;5071556;28;20766;-56
2024/01/12 06:57:34;;;;;;;17.70;13.90;;;;;;;0.64;100.00;146225.88;5071700;28;20654;-55
2024/01/12 07:00:01;;;;;;;22.37;14.63;;;;;;;0.70;100.00;146239.69;5071392;28;20188;-54
2024/01/12 07:02:28;;;;;;;21.33;15.03;;;;;;;0.74;100.00;146249.72;5071144;28;20246;-55
2024/01/12 07:05:02;;;;;;;19.03;14.63;;;;;;;0.71;100.00;146243.47;5071927;28;20689;-56
2024/01/12 07:07:30;;;;;;;16.47;13.57;;;;;;;0.78;100.00;146259.75;5071231;28;20411;-56
2024/01/12 07:09:57;;;;;;;19.40;14.03;;;;;;;0.86;100.00;146281.06;5071517;28;20555;-55
2024/01/12 07:12:24;;;;;;;21.67;14.50;;;;;;;0.88;100.00;146286.09;5071072;28;20242;-55
2024/01/12 07:14:53;;;;;;;16.83;14.10;;;;;;;0.95;100.00;146302.38;5071180;28;20189;-54
2024/01/12 07:17:20;;;;;;;19.27;14.67;;;;;;;0.91;100.00;146293.59;5071133;28;20189;-57
2024/01/12 07:19:47;;;;;;;24.87;15.37;;;;;;;0.85;100.00;146278.53;5071183;28;20238;-55
2024/01/12 07:22:14;;;;;;;16.03;13.97;;;;;;;0.83;100.00;146272.28;5071193;28;20207;-55
2024/01/12 07:24:41;;;;;;;20.47;14.30;;;;;;;0.92;100.00;146294.84;5071464;28;20265;-57
2024/01/12 07:27:08;;;;;;;19.97;14.27;;;;;;;0.93;100.00;146297.38;5071248;28;20216;-56
2024/01/12 07:29:35;;;;;;;21.67;14.83;;;;;;;0.82;100.00;146271.03;5071322;28;20554;-56
2024/01/12 07:32:04;;;;;;;22.60;14.20;;;;;;;1.00;100.00;146314.91;5071259;28;20226;-56
2024/01/12 07:34:31;;;;;;;20.97;13.53;;;;;;;0.99;100.00;146312.38;5071324;28;20215;-55
2024/01/12 07:36:58;;;;;;;23.77;14.60;;;;;;;1.08;100.00;146334.97;5071352;28;20180;-55
2024/01/12 07:39:26;;;;;;;17.73;13.97;;;;;;;1.04;100.00;146323.69;5074831;28;20188;-57
2024/01/12 07:41:53;;;;;;;16.93;13.47;;;;;;;1.06;100.00;146329.94;5075171;28;20189;-54
2024/01/12 07:44:20;;;;;;;19.47;13.37;;;;;;;1.23;100.00;146372.56;5075088;28;20207;-55
2024/01/12 07:46:47;;;;;;;16.83;13.77;;;;;;;1.23;100.00;146371.34;5074683;28;20274;-55
2024/01/12 07:49:16;;;;;;;21.37;13.40;;;;;;;1.31;100.00;146392.69;5074788;28;20193;-55
2024/01/12 07:51:43;;;;;;;21.30;14.13;;;;;;;1.25;100.00;146376.34;5074868;28;20196;-53
2024/01/12 07:54:10;;;;;;;28.60;14.73;;;;;;;1.27;100.00;146381.38;5074606;28;20232;-57
2024/01/12 07:56:37;;;;;;;26.83;15.47;;;;;;;1.28;100.00;146385.13;5074593;28;20208;-56
2024/01/12 07:59:04;;;;;;;21.30;13.90;;;;;;;1.27;100.00;146382.59;5074384;28;20190;-56
2024/01/12 08:01:31;;;;;;;21.40;14.17;;;;;;;1.34;100.00;146400.19;5075031;28;20189;-56
2024/01/12 08:03:59;;;;;;;24.73;14.17;;;;;;;1.33;100.00;146397.66;5074853;28;20676;-54
2024/01/12 08:06:27;;;;;;;25.73;14.87;;;;;;;1.28;100.00;146385.13;5074748;28;20180;-54
2024/01/12 08:08:54;;;;;;;18.37;13.80;;;;;;;1.34;100.00;146398.94;5074360;28;20234;-55
2024/01/12 08:11:21;;;;;;;24.13;13.83;;;;;;;1.32;100.00;146395.16;5074589;28;20263;-55
2024/01/12 08:13:48;;;;;;;23.43;14.10;;;;;;;1.25;100.00;146377.59;5074380;28;20242;-55
2024/01/12 08:16:15;;;;;;;26.23;15.43;;;;;;;1.51;100.00;146441.56;5074326;28;20246;-57
2024/01/12 08:18:42;;;;;;;28.93;15.03;;;;;;;1.56;100.00;146452.88;5074114;28;20258;-55
2024/01/12 08:21:09;;;;;;;23.70;14.57;;;;;;;1.60;100.00;146462.91;5074117;28;20185;-56
2024/01/12 08:23:38;;;;;;;21.00;15.67;;;;;;;1.68;100.00;146482.97;5074503;28;20192;-55
2024/01/12 08:26:05;;;;;;;19.73;15.37;;;;;;;1.69;100.00;146485.50;5074214;28;20325;-55
2024/01/12 08:28:32;;;;;;;22.13;15.90;;;;;;;1.62;100.00;146469.16;5073904;28;20262;-56
2024/01/12 08:30:59;;;;;;;21.77;14.20;;;;;;;1.73;100.00;146495.53;5074196;28;20234;-55
2024/01/12 08:33:26;;;;;;;27.63;15.90;;;;;;;1.94;100.00;146546.97;5073860;28;20239;-55
2024/01/12 08:35:53;;;;;;;28.73;18.67;;;;;;;2.15;100.00;146600.94;5074212;28;20196;-55
2024/01/12 08:38:20;;;;;;;22.33;14.47;;;;;;;1.97;100.00;146555.75;5073745;28;20234;-56
2024/01/12 08:40:49;;;;;;;16.07;13.57;;;;;;;2.35;100.00;146649.88;5074125;28;20180;-56
2024/01/12 08:43:17;;;;;;;19.73;14.37;;;;;;;2.45;100.00;146673.72;5074098;28;20613;-56
2024/01/12 08:45:44;;;;;;;21.50;15.23;;;;;;;2.60;100.00;146712.63;5074095;28;20557;-53
2024/01/12 08:48:11;;;;;;;23.30;13.87;;;;;;;2.62;100.00;146716.41;5073316;28;20485;-55
2024/01/12 08:50:38;;;;;;;19.13;14.57;;;;;;;2.85;100.00;146774.16;5072304;28;20177;-57
2024/01/12 08:53:05;;;;;;;23.83;14.97;;;;;;;3.20;100.00;146860.84;5073863;28;20662;-55
2024/01/12 08:55:32;;;;;;;35.87;15.93;;;;;;;3.34;100.00;146896.03;5073328;28;20298;-55
2024/01/12 08:58:01;;;;;;;17.77;13.90;;;;;;;3.77;100.00;147001.59;5073706;28;20185;-56
2024/01/12 09:00:28;;;;;;;19.77;14.60;;;;;;;4.17;100.00;147102.13;5073468;28;20238;-55
2024/01/12 09:02:55;;;;;;;23.00;14.70;;;;;;;4.42;100.00;147163.75;5073236;28;20189;-55
2024/01/12 09:05:22;;;;;;;30.17;13.50;;;;;;;4.35;100.00;147147.41;5073687;28;20639;-56
2024/01/12 09:07:49;;;;;;;18.90;13.77;;;;;;;4.76;100.00;147249.28;5073638;28;20208;-55
2024/01/12 09:10:17;;;;;;;16.57;13.07;;;;;;;4.90;100.00;147284.50;5073380;28;20192;-55
2024/01/12 09:12:44;;;;;;;23.17;13.83;;;;;;;5.04;100.00;147319.75;5073367;28;20200;-56
2024/01/12 09:15:13;;;;;;;20.90;13.30;;;;;;;4.82;100.00;147263.13;5073218;28;20197;-55
2024/01/12 09:17:41;;;;;;;13.43;12.13;;;;;;;4.79;100.00;147256.84;5073205;28;20211;-56
2024/01/12 09:20:09;;;;;;;21.77;14.00;;;;;;;4.72;100.00;147237.94;5073138;28;20191;-55
2024/01/12 09:22:36;;;;;;;18.03;12.53;;;;;;;4.57;100.00;147201.50;5073493;28;20659;-55
2024/01/12 09:25:03;;;;;;;19.73;13.10;;;;;;;4.57;100.00;147201.50;5073204;28;20181;-55
2024/01/12 09:27:30;;;;;;;22.10;13.87;;;;;;;4.66;100.00;147224.13;5073218;28;20583;-54
2024/01/12 09:29:57;;;;;;;18.17;12.93;;;;;;;4.94;100.00;147293.31;5073306;28;20189;-55
2024/01/12 09:32:26;;;;;;;26.17;13.67;;;;;;;5.45;100.00;147421.66;5072951;28;20185;-56
2024/01/12 09:34:52;;;;;;;14.37;13.07;;;;;;;5.49;100.00;147430.47;5072777;28;20184;-56
2024/01/12 09:37:19;;;;;;;19.77;13.50;;;;;;;5.72;100.00;147487.13;5072705;28;20184;-54
2024/01/12 09:39:46;;;;;;;18.67;13.03;;;;;;;6.00;100.00;147557.69;5072677;28;20191;-57
2024/01/12 09:42:17;;;;;;;16.83;12.73;;;;;;;5.89;100.00;147531.25;5072464;28;20265;-55
2024/01/12 09:44:46;;;;;;;14.70;13.10;;;;;;;6.16;100.00;147596.72;5072740;28;20247;-55
2024/01/12 09:47:13;;;;;;;22.57;12.63;;;;;;;6.25;100.00;147619.38;5072468;28;20209;-54
2024/01/12 09:49:43;;;;;;;19.90;13.27;;;;;;;6.44;100.00;147667.28;5072466;28;20185;-55
2024/01/12 09:52:11;;;;;;;33.87;13.57;;;;;;;6.48;100.00;147676.09;5072393;28;20189;-55
2024/01/12 09:54:38;;;;;;;14.83;11.90;;;;;;;6.29;100.00;147629.47;5072238;28;20290;-55
2024/01/12 09:57:07;;;;;;;19.80;12.60;;;;;;;5.95;100.00;147545.09;5072627;28;20285;-56
2024/01/12 09:59:37;;;;;;;15.43;12.80;;;;;;;5.80;100.00;147508.53;5072407;28;20193;-54
2024/01/12 10:02:06;;;;;;;19.07;12.67;;;;;;;5.70;100.00;147483.34;5072093;28;20185;-55
2024/01/12 10:04:33;;;;;;;20.13;13.13;;;;;;;5.53;100.00;147440.53;5072109;28;20188;-57
2024/01/12 10:07:01;;;;;;;15.43;13.20;;;;;;;5.29;100.00;147380.13;5072156;28;20188;-55
2024/01/12 10:09:28;;;;;;;22.37;13.63;;;;;;;5.10;100.00;147332.28;5072171;28;20189;-54
2024/01/12 10:11:56;;;;;;;18.57;13.63;;;;;;;5.00;100.00;147309.69;5072218;28;20185;-56
2024/01/12 10:14:25;;;;;;;15.80;13.27;;;;;;;4.76;100.00;147248.00;5072038;28;20240;-56
2024/01/12 10:16:55;;;;;;;17.77;13.17;;;;;;;4.84;100.00;147269.41;5071970;28;20250;-58
2024/01/12 10:19:23;;;;;;;17.00;12.60;;;;;;;4.80;100.00;147258.06;5072311;28;20617;-55
2024/01/12 10:21:50;;;;;;;16.33;12.50;;;;;;;4.39;100.00;147156.22;5071866;28;20184;-55
2024/01/12 10:24:19;;;;;;;19.00;13.80;;;;;;;4.33;100.00;147142.34;5071776;28;20188;-55
2024/01/12 10:26:47;;;;;;;23.87;13.80;;;;;;;4.46;100.00;147175.06;5071735;28;20196;-54
2024/01/12 10:29:14;;;;;;;15.20;12.83;;;;;;;4.50;100.00;147183.84;5072017;28;20629;-55
2024/01/12 10:31:43;;;;;;;22.73;12.83;;;;;;;4.41;100.00;147161.25;5071675;28;20192;-56
2024/01/12 10:34:12;;;;;;;22.87;13.33;;;;;;;4.41;100.00;147161.25;5087606;28;20201;-56
2024/01/12 10:36:40;;;;;;;19.33;14.00;;;;;;;4.35;100.00;147146.16;5092081;28;20546;-55
2024/01/12 10:39:09;;;;;;;16.93;14.37;;;;;;;4.49;100.00;147181.38;5092069;28;20617;-56
2024/01/12 10:41:38;;;;;;;14.90;12.47;;;;;;;4.63;100.00;147216.56;5091745;28;20195;-56
2024/01/12 10:44:06;;;;;;;17.37;13.37;;;;;;;4.61;100.00;147211.56;5091929;28;20248;-56
2024/01/12 10:46:41;;;;;;;22.80;15.10;;;;;;;4.69;100.00;147231.69;5091894;28;20196;-57
2024/01/12 10:49:13;;;;;;;26.33;14.73;;;;;;;4.80;100.00;147259.34;5091958;28;20622;-55
2024/01/12 10:51:47;;;;;;;21.60;14.80;;;;;;;5.23;100.00;147365.03;5091861;28;20180;-55
2024/01/12 10:54:20;;;;;;;28.13;15.40;;;;;;;5.53;100.00;147440.53;5090639;28;20277;-56
2024/01/12 10:56:49;;;;;;;20.10;13.77;;;;;;;5.61;100.00;147460.69;5091556;28;20190;-56
2024/01/12 10:59:17;;;;;;;17.07;12.97;;;;;;;6.04;100.00;147567.75;5092232;28;20210;-55
2024/01/12 11:01:45;;;;;;;13.90;12.47;;;;;;;5.85;100.00;147521.13;5091795;28;20512;-56
2024/01/12 11:04:14;;;;;;;23.97;12.73;;;;;;;5.83;100.00;147516.09;5091848;28;20188;-56
2024/01/12 11:06:44;;;;;;;21.67;13.70;;;;;;;5.76;100.00;147498.47;5091858;28;20195;-54
2024/01/12 11:09:16;;;;;;;26.07;13.87;;;;;;;5.76;100.00;147498.47;5091334;28;20204;-56
2024/01/12 11:11:48;;;;;;;15.10;12.83;;;;;;;5.57;100.00;147450.59;5091308;28;20278;-56
2024/01/12 11:14:20;;;;;;;13.80;12.33;;;;;;;5.45;100.00;147421.66;5091517;28;20650;-57
2024/01/12 11:16:47;;;;;;;20.00;11.93;;;;;;;5.28;100.00;147378.88;5091503;28;20187;-54